createdAt,value
2022-10-06T00:00:24.266Z,98456.13
2022-10-06T00:02:53.499Z,98458.41
2022-10-06T00:05:22.695Z,98459.50
2022-10-06T00:07:53.417Z,98452.50
2022-10-06T00:10:22.736Z,98446.25
2022-10-06T00:12:52.652Z,98452.47
2022-10-06T00:15:24.802Z,98458.84
2022-10-06T00:17:54.365Z,98452.66
2022-10-06T00:20:23.967Z,98449.91
2022-10-06T00:22:56.418Z,98454.50
2022-10-06T00:25:28.280Z,98446.50
2022-10-06T00:27:57.806Z,98452.53
2022-10-06T00:30:29.727Z,98447.63
2022-10-06T00:33:01.071Z,98441.41
2022-10-06T00:35:32.547Z,98444.19
2022-10-06T00:38:03.688Z,98450.38
2022-10-06T00:40:33.765Z,98447.25
2022-10-06T00:43:05.903Z,98447.97
2022-10-06T00:45:38.017Z,98445.19
2022-10-06T00:48:11.678Z,98448.00
2022-10-06T00:50:41.167Z,98446.09
2022-10-06T00:53:12.138Z,98446.91
2022-10-06T00:55:41.275Z,98450.03
2022-10-06T00:58:11.846Z,98441.81
2022-10-06T01:00:41.193Z,98449.59
2022-10-06T01:03:13.830Z,98447.31
2022-10-06T01:05:47.007Z,98440.31
2022-10-06T01:08:18.050Z,98448.81
2022-10-06T01:10:47.177Z,98445.59
2022-10-06T01:13:17.651Z,98435.69
2022-10-06T01:15:51.964Z,98442.22
2022-10-06T01:18:23.432Z,98439.56
2022-10-06T01:20:55.707Z,98437.50
2022-10-06T01:23:26.300Z,98435.66
2022-10-06T01:25:55.471Z,98434.78
2022-10-06T01:28:24.893Z,98429.50
2022-10-06T01:30:55.741Z,98437.22
2022-10-06T01:33:25.858Z,98441.16
2022-10-06T01:35:55.514Z,98435.28
2022-10-06T01:38:26.935Z,98438.38
2022-10-06T01:40:56.534Z,98436.50
2022-10-06T01:43:25.796Z,98439.91
2022-10-06T01:45:56.306Z,98434.06
2022-10-06T01:48:27.039Z,98430.97
2022-10-06T01:50:57.232Z,98436.47
2022-10-06T01:53:28.356Z,98434.16
2022-10-06T01:56:00.274Z,98432.53
2022-10-06T01:58:30.318Z,98440.25
2022-10-06T02:00:59.850Z,98433.81
2022-10-06T02:03:29.049Z,98439.25
2022-10-06T02:05:58.461Z,98442.72
2022-10-06T02:08:29.343Z,98440.28
2022-10-06T02:10:58.961Z,98432.94
2022-10-06T02:13:30.027Z,98435.66
2022-10-06T02:16:00.333Z,98434.09
2022-10-06T02:18:30.597Z,98427.22
2022-10-06T02:21:00.261Z,98433.34
2022-10-06T02:23:31.649Z,98432.56
2022-10-06T02:26:01.741Z,98437.63
2022-10-06T02:28:32.197Z,98433.41
2022-10-06T02:31:05.582Z,98438.06
2022-10-06T02:33:35.429Z,98440.03
2022-10-06T02:36:06.644Z,98431.84
2022-10-06T02:38:37.438Z,98436.53
2022-10-06T02:41:07.726Z,98434.97
2022-10-06T02:43:38.090Z,98447.34
2022-10-06T02:46:09.518Z,98437.31
2022-10-06T02:48:39.828Z,98436.88
2022-10-06T02:51:11.614Z,98444.28
2022-10-06T02:53:43.598Z,98452.03
2022-10-06T02:56:16.186Z,98456.28
2022-10-06T02:58:46.011Z,98455.13
2022-10-06T03:01:17.405Z,98461.69
2022-10-06T03:03:48.011Z,98465.22
2022-10-06T03:06:25.412Z,98459.75
2022-10-06T03:08:58.644Z,98462.13
2022-10-06T03:11:29.617Z,98465.22
2022-10-06T03:13:59.249Z,98459.72
2022-10-06T03:16:30.591Z,98468.28
2022-10-06T03:19:00.594Z,98459.75
2022-10-06T03:21:31.630Z,98468.31
2022-10-06T03:24:03.050Z,98463.28
2022-10-06T03:26:33.919Z,98462.50
2022-10-06T03:29:05.943Z,98472.94
2022-10-06T03:31:38.940Z,98467.47
2022-10-06T03:34:08.501Z,98465.19
2022-10-06T03:36:39.560Z,98461.72
2022-10-06T03:39:10.578Z,98474.47
2022-10-06T03:41:40.483Z,98474.13
2022-10-06T03:44:10.216Z,98485.34
2022-10-06T03:46:39.765Z,98479.16
2022-10-06T03:49:09.815Z,98486.47
2022-10-06T03:51:40.588Z,98488.47
2022-10-06T03:54:12.652Z,98495.06
2022-10-06T03:56:43.354Z,98495.44
2022-10-06T03:59:14.186Z,98498.16
2022-10-06T04:01:45.582Z,98500.41
2022-10-06T04:04:14.923Z,98505.41
2022-10-06T04:06:45.169Z,98507.00
2022-10-06T04:09:18.363Z,98501.63
2022-10-06T04:11:47.659Z,98511.97
2022-10-06T04:14:17.742Z,98511.72
2022-10-06T04:16:48.666Z,98517.94
2022-10-06T04:19:19.058Z,98516.00
2022-10-06T04:21:48.961Z,98506.19
2022-10-06T04:24:19.674Z,98519.28
2022-10-06T04:26:50.262Z,98516.66
2022-10-06T04:29:19.607Z,98504.59
2022-10-06T04:31:50.664Z,98513.13
2022-10-06T04:34:21.069Z,98517.84
2022-10-06T04:36:50.597Z,98520.94
2022-10-06T04:39:21.647Z,98522.41
2022-10-06T04:41:51.274Z,98527.22
2022-10-06T04:44:21.717Z,98528.72
2022-10-06T04:46:54.576Z,98529.53
2022-10-06T04:49:24.309Z,98531.81
2022-10-06T04:51:53.606Z,98525.53
2022-10-06T04:54:24.263Z,98531.09
2022-10-06T04:56:54.030Z,98531.81
2022-10-06T04:59:47.873Z,98535.72
2022-10-06T05:02:18.243Z,98538.47
2022-10-06T05:04:49.595Z,98544.84
2022-10-06T05:07:19.381Z,98543.69
2022-10-06T05:09:54.418Z,98543.50
2022-10-06T05:12:24.169Z,98545.72
2022-10-06T05:15:30.967Z,98549.34
2022-10-06T05:18:02.115Z,98547.97
2022-10-06T05:20:31.747Z,98544.97
2022-10-06T05:23:10.681Z,98544.97
2022-10-06T05:25:55.807Z,98554.56
2022-10-06T05:28:26.164Z,98556.19
2022-10-06T06:18:45.922Z,98625.41
2022-10-06T06:21:16.005Z,98627.31
2022-10-06T06:23:47.601Z,98630.38
2022-10-06T06:26:18.722Z,98631.94
2022-10-06T06:28:48.737Z,98638.94
2022-10-06T06:31:21.502Z,98640.50
2022-10-06T06:33:53.953Z,98644.00
2022-10-06T06:36:26.029Z,98637.41
2022-10-06T06:38:58.770Z,98640.13
2022-10-06T06:41:29.850Z,98644.41
2022-10-06T06:44:00.221Z,98648.22
2022-10-06T06:46:32.364Z,98642.47
2022-10-06T06:49:05.412Z,98648.25
2022-10-06T06:51:35.744Z,98650.56
2022-10-06T06:54:06.145Z,98661.47
2022-10-06T06:56:36.066Z,98649.81
2022-10-06T06:59:10.882Z,98661.44
2022-10-06T07:01:50.491Z,98666.84
2022-10-06T07:04:21.166Z,98660.66
2022-10-06T07:06:58.155Z,98659.06
2022-10-06T07:09:27.755Z,98669.19
2022-10-06T07:11:57.504Z,98661.81
2022-10-06T07:14:26.750Z,98656.72
2022-10-06T07:38:23.464Z,98674.50
2022-10-06T07:41:23.909Z,98672.19
2022-10-06T07:44:23.409Z,98676.09
2022-10-06T08:16:38.080Z,98711.44
2022-10-06T08:19:07.620Z,98713.03
2022-10-06T08:21:36.827Z,98716.88
2022-10-06T08:24:06.317Z,98716.06
2022-10-06T08:26:36.161Z,98718.13
2022-10-06T08:29:05.838Z,98719.63
2022-10-06T08:31:37.066Z,98719.22
2022-10-06T08:34:11.807Z,98726.47
2022-10-06T08:36:52.118Z,98729.53
2022-10-06T08:39:31.454Z,98728.31
2022-10-06T08:42:00.723Z,98729.38
2022-10-06T08:44:34.689Z,98734.50
2022-10-06T08:47:12.141Z,98727.88
2022-10-06T08:49:44.910Z,98725.78
2022-10-06T08:52:22.595Z,98730.25
2022-10-06T08:54:59.559Z,98725.13
2022-10-06T08:57:34.341Z,98728.91
2022-10-06T09:00:04.277Z,98736.78
2022-10-06T09:02:41.725Z,98743.75
2022-10-06T09:05:14.626Z,98737.28
2022-10-06T09:07:52.652Z,98745.00
2022-10-06T09:10:32.029Z,98750.84
2022-10-06T09:13:06.766Z,98751.91
2022-10-06T09:15:41.407Z,98748.47
2022-10-06T09:18:16.703Z,98748.88
2022-10-06T09:20:51.131Z,98758.94
2022-10-06T09:23:42.317Z,98753.69
2022-10-06T09:26:14.451Z,98759.00
2022-10-06T09:28:46.630Z,98758.19
2022-10-06T09:31:23.064Z,98753.34
2022-10-06T09:33:55.643Z,98753.50
2022-10-06T09:36:24.883Z,98761.69
2022-10-06T09:38:55.598Z,98760.59
2022-10-06T09:41:27.694Z,98757.81
2022-10-06T09:43:59.670Z,98753.50
2022-10-06T09:46:39.923Z,98755.75
2022-10-06T09:49:22.289Z,98765.50
2022-10-06T09:52:12.272Z,98758.56
2022-10-06T09:54:43.361Z,98756.88
2022-10-06T09:57:16.472Z,98755.75
2022-10-06T09:59:47.081Z,98753.66
2022-10-06T10:02:31.150Z,98758.00
2022-10-06T10:05:02.485Z,98760.09
2022-10-06T10:07:33.232Z,98766.25
2022-10-06T10:10:29.885Z,98765.03
2022-10-06T10:13:00.482Z,98755.19
2022-10-06T10:15:42.782Z,98756.75
2022-10-06T10:18:16.940Z,98763.56
2022-10-06T10:20:55.913Z,98765.00
2022-10-06T10:23:31.567Z,98759.97
2022-10-06T10:26:27.218Z,98761.84
2022-10-06T10:29:33.043Z,98753.88
2022-10-06T10:32:12.012Z,98751.78
2022-10-06T10:35:09.746Z,98752.25
2022-10-06T10:37:47.582Z,98755.69
2022-10-06T10:40:36.023Z,98755.81
2022-10-06T10:43:12.923Z,98755.50
2022-10-06T10:45:46.350Z,98755.13
2022-10-06T10:48:20.148Z,98752.06
2022-10-06T10:50:57.646Z,98757.81
2022-10-06T10:53:35.657Z,98758.09
2022-10-06T10:56:10.442Z,98766.34
2022-10-06T10:58:41.990Z,98764.63
2022-10-06T11:01:25.899Z,98761.47
2022-10-06T11:03:58.986Z,98756.78
2022-10-06T11:06:51.597Z,98751.34
2022-10-06T11:09:27.629Z,98759.53
2022-10-06T11:12:29.859Z,98752.91
2022-10-06T11:15:02.274Z,98753.81
2022-10-06T12:17:44.071Z,98725.53
2022-10-06T12:20:17.999Z,98733.28
2022-10-06T12:22:52.384Z,98724.97
2022-10-06T12:25:26.964Z,98724.00
2022-10-06T12:28:05.355Z,98728.25
2022-10-06T12:30:47.267Z,98727.50
2022-10-06T12:33:21.273Z,98721.47
2022-10-06T12:36:03.161Z,98717.94
2022-10-06T12:38:44.469Z,98719.78
2022-10-06T12:41:14.691Z,98722.38
2022-10-06T12:43:55.321Z,98722.53
2022-10-06T12:46:41.265Z,98728.84
2022-10-06T12:49:45.017Z,98730.25
2022-10-06T12:52:40.811Z,98719.50
2022-10-06T12:55:41.247Z,98721.09
2022-10-06T12:58:19.746Z,98713.56
2022-10-06T13:00:49.482Z,98721.78
2022-10-06T13:03:21.034Z,98720.50
2022-10-06T13:05:54.474Z,98723.78
2022-10-06T13:08:25.571Z,98717.69
2022-10-06T13:11:17.533Z,98714.69
2022-10-06T13:13:50.725Z,98714.22
2022-10-06T14:17:23.889Z,98739.06
2022-10-06T14:19:56.318Z,98737.41
2022-10-06T14:22:33.106Z,98737.50
2022-10-06T14:25:02.848Z,98741.19
2022-10-06T14:27:32.117Z,98742.13
2022-10-06T14:30:01.793Z,98743.84
2022-10-06T14:32:32.834Z,98736.91
2022-10-06T14:35:02.703Z,98744.63
2022-10-06T14:37:33.823Z,98744.00
2022-10-06T14:40:03.457Z,98744.00
2022-10-06T14:42:32.857Z,98748.59
2022-10-06T14:45:02.973Z,98735.56
2022-10-06T14:47:33.853Z,98739.69
2022-10-06T14:50:03.224Z,98742.72
2022-10-06T14:52:32.787Z,98739.66
2022-10-06T14:55:02.274Z,98732.97
2022-10-06T14:57:31.555Z,98736.84
2022-10-06T15:00:01.192Z,98735.66
2022-10-06T15:02:32.711Z,98735.63
2022-10-06T15:05:01.945Z,98737.59
2022-10-06T15:07:49.019Z,98736.31
2022-10-06T15:10:18.443Z,98739.22
2022-10-06T15:12:47.759Z,98738.91
2022-10-06T15:25:29.194Z,98751.03
2022-10-06T15:29:04.651Z,98744.00
2022-10-06T16:15:17.792Z,98788.56
2022-10-06T16:17:46.870Z,98800.56
2022-10-06T16:20:18.228Z,98807.69
2022-10-06T16:22:47.406Z,98802.81
2022-10-06T16:25:16.605Z,98811.16
2022-10-06T16:27:45.754Z,98809.78
2022-10-06T16:30:16.411Z,98817.31
2022-10-06T16:32:45.612Z,98816.72
2022-10-06T16:35:18.226Z,98814.22
2022-10-06T16:37:50.424Z,98816.63
2022-10-06T16:40:19.707Z,98823.63
2022-10-06T16:42:48.841Z,98822.72
2022-10-06T16:45:20.031Z,98826.41
2022-10-06T16:47:50.695Z,98830.00
2022-10-06T16:50:19.923Z,98840.94
2022-10-06T16:52:48.776Z,98836.19
2022-10-06T16:55:18.240Z,98837.34
2022-10-06T16:57:47.636Z,98843.81
2022-10-06T17:00:18.681Z,98843.97
2022-10-06T17:02:48.207Z,98853.53
2022-10-06T17:05:17.884Z,98853.72
2022-10-06T17:07:47.211Z,98855.16
2022-10-06T17:10:20.597Z,98856.47
2022-10-06T17:12:50.854Z,98856.63
2022-10-06T17:15:21.586Z,98856.69
2022-10-06T17:17:50.925Z,98863.09
2022-10-06T17:20:20.722Z,98860.19
2022-10-06T17:22:50.320Z,98881.53
2022-10-06T17:25:19.957Z,98877.72
2022-10-06T17:27:49.256Z,98871.94
2022-10-06T17:30:20.965Z,98875.06
2022-10-06T17:32:51.646Z,98879.31
2022-10-06T17:35:21.736Z,98880.28
2022-10-06T17:37:51.368Z,98878.03
2022-10-06T17:40:20.722Z,98883.28
2022-10-06T17:42:49.954Z,98880.97
2022-10-06T17:45:21.384Z,98890.03
2022-10-06T17:47:52.933Z,98883.47
2022-10-06T17:50:57.361Z,98888.25
2022-10-06T17:53:27.571Z,98891.13
2022-10-06T17:55:58.527Z,98889.97
2022-10-06T17:58:29.894Z,98890.06
2022-10-06T18:01:06.003Z,98888.97
2022-10-06T18:03:41.696Z,98888.25
2022-10-06T18:06:12.215Z,98895.22
2022-10-06T18:08:42.885Z,98899.63
2022-10-06T18:11:30.345Z,98885.69
2022-10-06T18:14:00.526Z,98886.94
2022-10-06T18:16:32.315Z,98888.19
2022-10-06T18:19:03.980Z,98888.25
2022-10-06T18:21:37.392Z,98891.00
2022-10-06T18:24:08.686Z,98891.50
2022-10-06T18:26:38.413Z,98894.31
2022-10-06T18:29:08.788Z,98893.53
2022-10-06T18:31:39.233Z,98894.34
2022-10-06T18:37:01.605Z,98909.25
2022-10-06T18:39:32.094Z,98907.34
2022-10-06T18:42:09.344Z,98907.13
2022-10-06T18:44:56.736Z,98906.16
2022-10-06T18:47:45.503Z,98916.06
2022-10-06T18:50:16.646Z,98911.75
2022-10-06T18:52:45.970Z,98916.03
2022-10-06T18:55:15.511Z,98917.56
2022-10-06T18:57:45.752Z,98924.66
2022-10-06T19:00:15.495Z,98929.34
2022-10-06T19:02:48.289Z,98925.47
2022-10-06T19:05:19.497Z,98930.09
2022-10-06T19:07:50.916Z,98926.19
2022-10-06T19:10:20.960Z,98927.91
2022-10-06T19:12:53.761Z,98918.53
2022-10-06T19:15:23.355Z,98925.66
2022-10-06T19:17:53.817Z,98917.63
2022-10-06T19:20:24.754Z,98915.28
2022-10-06T19:22:54.672Z,98918.47
2022-10-06T19:25:26.886Z,98911.09
2022-10-06T19:27:56.381Z,98913.06
2022-10-06T19:30:25.956Z,98909.16
2022-10-06T19:32:55.293Z,98911.88
2022-10-06T19:35:26.128Z,98907.31
2022-10-06T19:37:58.019Z,98908.88
2022-10-06T19:40:27.965Z,98901.91
2022-10-06T19:42:56.187Z,98919.00
2022-10-06T19:45:25.184Z,98918.31
2022-10-06T19:47:55.406Z,98930.81
2022-10-06T19:50:26.193Z,98923.03
2022-10-06T19:52:55.526Z,98932.41
2022-10-06T19:55:25.231Z,98926.22
2022-10-06T19:57:54.781Z,98931.97
2022-10-06T20:00:24.476Z,98931.66
2022-10-06T20:02:53.733Z,98922.72
2022-10-06T20:05:22.954Z,98918.63
2022-10-06T20:07:53.973Z,98925.50
2022-10-06T20:10:22.973Z,98930.09
2022-10-06T20:12:52.345Z,98926.41
2022-10-06T20:15:22.759Z,98927.16
2022-10-06T20:17:52.110Z,98931.50
2022-10-06T20:20:21.542Z,98917.81
2022-10-06T20:22:54.025Z,98924.19
2022-10-06T20:25:23.815Z,98921.91
2022-10-06T20:27:52.949Z,98923.44
2022-10-06T20:30:22.345Z,98925.44
2022-10-06T20:32:53.634Z,98917.25
2022-10-06T20:35:22.766Z,98920.28
2022-10-06T20:37:56.189Z,98912.53
2022-10-06T20:40:39.425Z,98909.50
2022-10-06T20:43:08.865Z,98911.06
2022-10-06T20:45:38.645Z,98909.31
2022-10-06T20:48:07.849Z,98912.59
2022-10-06T20:50:37.295Z,98910.28
2022-10-06T20:53:08.026Z,98911.44
2022-10-06T20:55:37.308Z,98913.03
2022-10-06T20:58:06.601Z,98910.28
2022-10-06T21:00:35.771Z,98914.94
2022-10-06T21:03:05.252Z,98912.34
2022-10-06T21:05:34.427Z,98908.78
2022-10-06T21:08:04.027Z,98909.63
2022-10-06T21:10:34.808Z,98912.38
2022-10-06T21:13:04.463Z,98908.09
2022-10-06T21:15:33.604Z,98909.94
2022-10-06T21:18:05.735Z,98901.13
2022-10-06T21:20:35.219Z,98908.13
2022-10-06T21:23:10.776Z,98903.75
2022-10-06T22:10:39.044Z,98869.84
2022-10-06T22:25:31.233Z,98865.88
2022-10-06T22:28:01.731Z,98864.72
2022-10-06T22:30:30.756Z,98865.53
2022-10-06T22:33:00.106Z,98860.16
2022-10-06T22:35:29.154Z,98855.78
2022-10-06T22:37:58.410Z,98856.56
2022-10-06T22:40:27.412Z,98861.63
2022-10-06T22:42:56.590Z,98849.06
2022-10-06T22:45:27.211Z,98851.66
2022-10-06T22:47:56.279Z,98847.44
2022-10-06T22:50:25.339Z,98856.59
2022-10-06T22:52:54.679Z,98857.00
2022-10-06T22:55:24.082Z,98853.50
2022-10-06T22:57:53.801Z,98853.78
2022-10-06T23:00:46.961Z,98851.47
